Terminal Aerodrome Forecast
Issued by NWS

Home | Current Version | Previous Version | Text Only | Print | Product List | Glossary On
Versions: 1 2 3 4 5 6 7 8 9 10 11 12 13 14 15 16 17 18 19 20 21 22 23 24 25 26 27 28
000
FTUS45 KBOU 252323
TAFAPA
TAF
KAPA 252323Z 2600/2624 VRB05KT P6SM SKC
     FM260100 14006KT P6SM SCT250
     FM260400 18008KT P6SM BKN220
     FM260700 24007KT P6SM BKN200
     FM261000 35017G27KT P6SM SCT100 BKN200
     FM261200 36015G23KT P6SM VCSH BKN030 BKN070
     FM261800 01014G22KT P6SM BKN045 BKN070=

USA.gov is the U.S. government's official web portal to all federal, state and local government web resources and services.